sensor_id;sensor_type;location;lat;lon;timestamp;P1;durP1;ratioP1;P2;durP2;ratioP2
71083;SDS011;58741;52.672;13.548;2023-05-21T00:00:45;2.20;;;1.95;;
71083;SDS011;58741;52.672;13.548;2023-05-21T00:03:12;2.50;;;1.80;;
71083;SDS011;58741;52.672;13.548;2023-05-21T00:05:38;2.65;;;1.92;;
71083;SDS011;58741;52.672;13.548;2023-05-21T00:10:35;3.25;;;1.73;;
71083;SDS011;58741;52.672;13.548;2023-05-21T00:13:00;5.40;;;2.25;;
71083;SDS011;58741;52.672;13.548;2023-05-21T00:15:26;2.08;;;1.67;;
71083;SDS011;58741;52.672;13.548;2023-05-21T00:17:52;4.10;;;1.90;;
71083;SDS011;58741;52.672;13.548;2023-05-21T00:20:17;3.63;;;2.08;;
71083;SDS011;58741;52.672;13.548;2023-05-21T00:22:43;3.13;;;1.92;;
71083;SDS011;58741;52.672;13.548;2023-05-21T00:25:09;8.15;;;2.22;;
71083;SDS011;58741;52.672;13.548;2023-05-21T00:27:35;1.95;;;1.50;;
71083;SDS011;58741;52.672;13.548;2023-05-21T00:30:01;3.72;;;2.30;;
71083;SDS011;58741;52.672;13.548;2023-05-21T00:32:28;2.55;;;1.63;;
71083;SDS011;58741;52.672;13.548;2023-05-21T00:34:53;3.17;;;1.80;;
71083;SDS011;58741;52.672;13.548;2023-05-21T00:37:20;1.95;;;1.33;;
71083;SDS011;58741;52.672;13.548;2023-05-21T00:39:45;3.65;;;1.77;;
71083;SDS011;58741;52.672;13.548;2023-05-21T00:42:11;1.05;;;1.02;;
71083;SDS011;58741;52.672;13.548;2023-05-21T00:44:42;2.08;;;1.40;;
71083;SDS011;58741;52.672;13.548;2023-05-21T00:47:11;2.33;;;1.67;;
71083;SDS011;58741;52.672;13.548;2023-05-21T00:49:37;3.00;;;1.75;;
71083;SDS011;58741;52.672;13.548;2023-05-21T00:52:03;2.53;;;1.80;;
71083;SDS011;58741;52.672;13.548;2023-05-21T00:54:30;3.20;;;1.77;;
71083;SDS011;58741;52.672;13.548;2023-05-21T00:56:56;4.55;;;2.17;;
71083;SDS011;58741;52.672;13.548;2023-05-21T00:59:22;2.63;;;1.95;;
71083;SDS011;58741;52.672;13.548;2023-05-21T01:01:48;3.10;;;2.20;;
71083;SDS011;58741;52.672;13.548;2023-05-21T01:04:23;2.45;;;1.85;;
71083;SDS011;58741;52.672;13.548;2023-05-21T01:06:49;2.72;;;1.98;;
71083;SDS011;58741;52.672;13.548;2023-05-21T01:09:15;4.35;;;2.40;;
71083;SDS011;58741;52.672;13.548;2023-05-21T01:11:46;6.57;;;2.08;;
71083;SDS011;58741;52.672;13.548;2023-05-21T01:14:14;2.70;;;1.70;;
71083;SDS011;58741;52.672;13.548;2023-05-21T01:16:42;3.53;;;2.20;;
71083;SDS011;58741;52.672;13.548;2023-05-21T01:19:21;4.13;;;1.95;;
71083;SDS011;58741;52.672;13.548;2023-05-21T01:21:49;4.30;;;2.13;;
71083;SDS011;58741;52.672;13.548;2023-05-21T01:24:17;2.20;;;1.83;;
71083;SDS011;58741;52.672;13.548;2023-05-21T01:26:43;1.88;;;1.60;;
71083;SDS011;58741;52.672;13.548;2023-05-21T01:29:11;2.55;;;1.85;;
71083;SDS011;58741;52.672;13.548;2023-05-21T01:31:44;2.92;;;1.77;;
71083;SDS011;58741;52.672;13.548;2023-05-21T01:40:24;4.07;;;2.13;;
71083;SDS011;58741;52.672;13.548;2023-05-21T01:42:52;5.47;;;2.30;;
71083;SDS011;58741;52.672;13.548;2023-05-21T01:45:18;2.83;;;2.15;;
71083;SDS011;58741;52.672;13.548;2023-05-21T01:47:46;3.20;;;1.98;;
71083;SDS011;58741;52.672;13.548;2023-05-21T01:50:14;3.95;;;2.05;;
71083;SDS011;58741;52.672;13.548;2023-05-21T01:52:51;2.30;;;1.70;;
71083;SDS011;58741;52.672;13.548;2023-05-21T01:55:19;3.42;;;2.08;;
71083;SDS011;58741;52.672;13.548;2023-05-21T01:57:49;2.20;;;1.42;;
71083;SDS011;58741;52.672;13.548;2023-05-21T02:00:17;4.30;;;2.13;;
71083;SDS011;58741;52.672;13.548;2023-05-21T02:02:47;3.17;;;2.13;;
71083;SDS011;58741;52.672;13.548;2023-05-21T02:05:13;3.55;;;2.35;;
71083;SDS011;58741;52.672;13.548;2023-05-21T02:07:39;2.42;;;1.90;;
71083;SDS011;58741;52.672;13.548;2023-05-21T02:10:05;4.28;;;2.90;;
71083;SDS011;58741;52.672;13.548;2023-05-21T02:12:32;5.53;;;2.33;;
71083;SDS011;58741;52.672;13.548;2023-05-21T02:14:59;3.22;;;2.25;;
71083;SDS011;58741;52.672;13.548;2023-05-21T02:17:24;3.75;;;2.22;;
71083;SDS011;58741;52.672;13.548;2023-05-21T02:19:50;5.30;;;2.67;;
71083;SDS011;58741;52.672;13.548;2023-05-21T02:22:16;5.60;;;2.80;;
71083;SDS011;58741;52.672;13.548;2023-05-21T02:24:41;2.90;;;1.95;;
71083;SDS011;58741;52.672;13.548;2023-05-21T02:27:07;2.88;;;2.05;;
71083;SDS011;58741;52.672;13.548;2023-05-21T02:29:34;5.63;;;2.05;;
71083;SDS011;58741;52.672;13.548;2023-05-21T02:32:00;4.05;;;2.55;;
71083;SDS011;58741;52.672;13.548;2023-05-21T02:34:26;3.65;;;2.20;;
71083;SDS011;58741;52.672;13.548;2023-05-21T02:36:55;5.18;;;2.97;;
71083;SDS011;58741;52.672;13.548;2023-05-21T02:39:21;3.97;;;2.92;;
71083;SDS011;58741;52.672;13.548;2023-05-21T02:41:46;4.40;;;2.80;;
71083;SDS011;58741;52.672;13.548;2023-05-21T02:44:13;4.72;;;2.45;;
71083;SDS011;58741;52.672;13.548;2023-05-21T02:46:38;3.17;;;2.38;;
71083;SDS011;58741;52.672;13.548;2023-05-21T02:49:05;2.83;;;2.28;;
71083;SDS011;58741;52.672;13.548;2023-05-21T02:51:30;4.00;;;1.90;;
71083;SDS011;58741;52.672;13.548;2023-05-21T02:53:56;4.07;;;2.17;;
71083;SDS011;58741;52.672;13.548;2023-05-21T02:56:21;3.88;;;2.33;;
71083;SDS011;58741;52.672;13.548;2023-05-21T02:58:47;4.05;;;2.65;;
71083;SDS011;58741;52.672;13.548;2023-05-21T03:01:13;3.15;;;2.33;;
71083;SDS011;58741;52.672;13.548;2023-05-21T03:03:38;4.88;;;2.75;;
71083;SDS011;58741;52.672;13.548;2023-05-21T03:06:04;4.55;;;2.58;;
71083;SDS011;58741;52.672;13.548;2023-05-21T03:08:30;5.18;;;2.75;;
71083;SDS011;58741;52.672;13.548;2023-05-21T03:10:56;5.40;;;2.60;;
71083;SDS011;58741;52.672;13.548;2023-05-21T03:13:22;3.15;;;2.30;;
71083;SDS011;58741;52.672;13.548;2023-05-21T03:15:47;4.25;;;2.33;;
71083;SDS011;58741;52.672;13.548;2023-05-21T03:18:13;3.78;;;2.35;;
71083;SDS011;58741;52.672;13.548;2023-05-21T03:20:38;3.67;;;2.45;;
71083;SDS011;58741;52.672;13.548;2023-05-21T03:23:08;4.50;;;3.35;;
71083;SDS011;58741;52.672;13.548;2023-05-21T03:25:36;4.80;;;2.65;;
71083;SDS011;58741;52.672;13.548;2023-05-21T03:28:02;3.33;;;2.38;;
71083;SDS011;58741;52.672;13.548;2023-05-21T03:30:43;3.17;;;2.33;;
71083;SDS011;58741;52.672;13.548;2023-05-21T03:33:32;4.68;;;2.92;;
71083;SDS011;58741;52.672;13.548;2023-05-21T03:35:59;6.00;;;3.30;;
71083;SDS011;58741;52.672;13.548;2023-05-21T03:38:28;4.53;;;2.83;;
71083;SDS011;58741;52.672;13.548;2023-05-21T03:40:53;2.70;;;2.25;;
71083;SDS011;58741;52.672;13.548;2023-05-21T03:43:19;5.20;;;3.35;;
71083;SDS011;58741;52.672;13.548;2023-05-21T03:45:45;3.05;;;2.00;;
71083;SDS011;58741;52.672;13.548;2023-05-21T03:48:29;9.20;;;2.70;;
71083;SDS011;58741;52.672;13.548;2023-05-21T03:50:54;6.15;;;2.33;;
71083;SDS011;58741;52.672;13.548;2023-05-21T03:53:20;3.30;;;2.50;;
71083;SDS011;58741;52.672;13.548;2023-05-21T03:55:46;4.15;;;3.10;;
71083;SDS011;58741;52.672;13.548;2023-05-21T03:58:20;5.03;;;2.83;;
71083;SDS011;58741;52.672;13.548;2023-05-21T04:00:46;3.90;;;2.58;;
71083;SDS011;58741;52.672;13.548;2023-05-21T04:03:12;5.07;;;3.05;;
71083;SDS011;58741;52.672;13.548;2023-05-21T04:05:39;6.28;;;3.03;;
71083;SDS011;58741;52.672;13.548;2023-05-21T04:08:06;4.32;;;2.78;;
71083;SDS011;58741;52.672;13.548;2023-05-21T04:10:31;6.03;;;2.67;;
71083;SDS011;58741;52.672;13.548;2023-05-21T04:12:57;3.97;;;2.47;;
71083;SDS011;58741;52.672;13.548;2023-05-21T04:15:24;4.40;;;2.67;;
71083;SDS011;58741;52.672;13.548;2023-05-21T04:17:51;3.72;;;2.40;;
71083;SDS011;58741;52.672;13.548;2023-05-21T04:20:17;2.75;;;2.25;;
71083;SDS011;58741;52.672;13.548;2023-05-21T04:22:43;4.38;;;2.78;;
71083;SDS011;58741;52.672;13.548;2023-05-21T04:25:09;3.45;;;2.17;;
71083;SDS011;58741;52.672;13.548;2023-05-21T04:27:36;4.35;;;2.63;;
71083;SDS011;58741;52.672;13.548;2023-05-21T04:30:02;3.47;;;2.22;;
71083;SDS011;58741;52.672;13.548;2023-05-21T04:32:29;3.88;;;3.10;;
71083;SDS011;58741;52.672;13.548;2023-05-21T04:34:58;3.63;;;2.53;;
71083;SDS011;58741;52.672;13.548;2023-05-21T04:37:28;4.53;;;2.83;;
71083;SDS011;58741;52.672;13.548;2023-05-21T04:39:58;7.28;;;3.38;;
71083;SDS011;58741;52.672;13.548;2023-05-21T04:42:25;3.83;;;2.63;;
71083;SDS011;58741;52.672;13.548;2023-05-21T04:44:52;4.70;;;2.53;;
71083;SDS011;58741;52.672;13.548;2023-05-21T04:47:19;4.93;;;2.95;;
71083;SDS011;58741;52.672;13.548;2023-05-21T04:49:46;5.57;;;3.38;;
71083;SDS011;58741;52.672;13.548;2023-05-21T04:52:12;5.25;;;3.13;;
71083;SDS011;58741;52.672;13.548;2023-05-21T04:54:37;4.57;;;2.50;;
71083;SDS011;58741;52.672;13.548;2023-05-21T04:57:06;2.58;;;1.98;;
71083;SDS011;58741;52.672;13.548;2023-05-21T04:59:32;3.38;;;1.90;;
71083;SDS011;58741;52.672;13.548;2023-05-21T05:01:59;6.05;;;3.22;;
71083;SDS011;58741;52.672;13.548;2023-05-21T05:04:24;5.85;;;3.20;;
71083;SDS011;58741;52.672;13.548;2023-05-21T05:06:50;3.10;;;2.22;;
71083;SDS011;58741;52.672;13.548;2023-05-21T05:09:17;4.95;;;3.28;;
71083;SDS011;58741;52.672;13.548;2023-05-21T05:11:46;8.50;;;3.65;;
71083;SDS011;58741;52.672;13.548;2023-05-21T05:14:12;5.43;;;2.90;;
71083;SDS011;58741;52.672;13.548;2023-05-21T05:16:37;3.28;;;2.58;;
71083;SDS011;58741;52.672;13.548;2023-05-21T05:19:03;5.85;;;3.58;;
71083;SDS011;58741;52.672;13.548;2023-05-21T05:21:28;4.78;;;3.63;;
71083;SDS011;58741;52.672;13.548;2023-05-21T05:23:54;6.93;;;3.60;;
71083;SDS011;58741;52.672;13.548;2023-05-21T05:26:24;6.20;;;3.65;;
71083;SDS011;58741;52.672;13.548;2023-05-21T05:29:18;9.65;;;3.53;;
71083;SDS011;58741;52.672;13.548;2023-05-21T05:31:44;8.57;;;4.47;;
71083;SDS011;58741;52.672;13.548;2023-05-21T05:34:11;6.68;;;3.78;;
71083;SDS011;58741;52.672;13.548;2023-05-21T05:36:36;5.85;;;3.88;;
71083;SDS011;58741;52.672;13.548;2023-05-21T05:39:02;5.18;;;3.47;;
71083;SDS011;58741;52.672;13.548;2023-05-21T05:41:27;3.75;;;3.08;;
71083;SDS011;58741;52.672;13.548;2023-05-21T05:43:54;4.13;;;3.13;;
71083;SDS011;58741;52.672;13.548;2023-05-21T05:46:21;5.20;;;3.45;;
71083;SDS011;58741;52.672;13.548;2023-05-21T05:48:46;8.30;;;4.43;;
71083;SDS011;58741;52.672;13.548;2023-05-21T05:51:12;7.45;;;3.63;;
71083;SDS011;58741;52.672;13.548;2023-05-21T05:53:39;5.50;;;3.90;;
71083;SDS011;58741;52.672;13.548;2023-05-21T05:56:05;5.85;;;4.18;;
71083;SDS011;58741;52.672;13.548;2023-05-21T05:58:31;7.38;;;5.07;;
71083;SDS011;58741;52.672;13.548;2023-05-21T06:01:09;5.88;;;4.32;;
71083;SDS011;58741;52.672;13.548;2023-05-21T06:03:35;6.78;;;4.50;;
71083;SDS011;58741;52.672;13.548;2023-05-21T06:06:08;6.60;;;4.55;;
71083;SDS011;58741;52.672;13.548;2023-05-21T06:08:35;5.97;;;4.25;;
71083;SDS011;58741;52.672;13.548;2023-05-21T06:11:00;8.15;;;4.53;;
71083;SDS011;58741;52.672;13.548;2023-05-21T06:13:26;6.22;;;4.18;;
71083;SDS011;58741;52.672;13.548;2023-05-21T06:15:53;9.52;;;4.00;;
71083;SDS011;58741;52.672;13.548;2023-05-21T06:18:18;6.30;;;3.60;;
71083;SDS011;58741;52.672;13.548;2023-05-21T06:20:44;5.65;;;3.80;;
71083;SDS011;58741;52.672;13.548;2023-05-21T06:23:09;6.30;;;3.92;;
71083;SDS011;58741;52.672;13.548;2023-05-21T06:25:35;6.43;;;3.90;;
71083;SDS011;58741;52.672;13.548;2023-05-21T06:28:02;8.13;;;4.15;;
71083;SDS011;58741;52.672;13.548;2023-05-21T06:30:29;8.10;;;4.40;;
71083;SDS011;58741;52.672;13.548;2023-05-21T06:32:54;7.10;;;4.03;;
71083;SDS011;58741;52.672;13.548;2023-05-21T06:35:21;5.32;;;3.47;;
71083;SDS011;58741;52.672;13.548;2023-05-21T06:37:47;4.97;;;3.40;;
71083;SDS011;58741;52.672;13.548;2023-05-21T06:40:13;5.05;;;3.72;;
71083;SDS011;58741;52.672;13.548;2023-05-21T06:42:39;4.18;;;3.28;;
71083;SDS011;58741;52.672;13.548;2023-05-21T06:45:23;5.65;;;3.88;;
71083;SDS011;58741;52.672;13.548;2023-05-21T06:47:52;6.95;;;3.88;;
71083;SDS011;58741;52.672;13.548;2023-05-21T06:50:18;4.55;;;3.25;;
71083;SDS011;58741;52.672;13.548;2023-05-21T06:52:44;6.13;;;3.10;;
71083;SDS011;58741;52.672;13.548;2023-05-21T06:55:10;4.65;;;3.30;;
71083;SDS011;58741;52.672;13.548;2023-05-21T06:57:57;3.80;;;2.83;;
71083;SDS011;58741;52.672;13.548;2023-05-21T07:00:23;5.03;;;2.80;;
71083;SDS011;58741;52.672;13.548;2023-05-21T07:02:49;3.88;;;2.85;;
71083;SDS011;58741;52.672;13.548;2023-05-21T07:05:15;5.00;;;3.47;;
71083;SDS011;58741;52.672;13.548;2023-05-21T07:07:40;5.90;;;2.65;;
71083;SDS011;58741;52.672;13.548;2023-05-21T07:10:06;3.45;;;2.55;;
71083;SDS011;58741;52.672;13.548;2023-05-21T07:12:33;6.80;;;3.50;;
71083;SDS011;58741;52.672;13.548;2023-05-21T07:14:58;4.85;;;3.10;;
71083;SDS011;58741;52.672;13.548;2023-05-21T07:17:25;3.33;;;2.67;;
71083;SDS011;58741;52.672;13.548;2023-05-21T07:19:51;4.18;;;3.28;;
71083;SDS011;58741;52.672;13.548;2023-05-21T07:22:17;5.65;;;2.50;;
71083;SDS011;58741;52.672;13.548;2023-05-21T07:24:43;3.15;;;2.28;;
71083;SDS011;58741;52.672;13.548;2023-05-21T07:27:08;3.70;;;2.72;;
71083;SDS011;58741;52.672;13.548;2023-05-21T07:29:34;4.38;;;2.40;;
71083;SDS011;58741;52.672;13.548;2023-05-21T07:31:59;4.07;;;2.25;;
71083;SDS011;58741;52.672;13.548;2023-05-21T07:34:26;2.70;;;2.50;;
71083;SDS011;58741;52.672;13.548;2023-05-21T07:36:52;4.93;;;3.20;;
71083;SDS011;58741;52.672;13.548;2023-05-21T07:39:18;3.90;;;3.03;;
71083;SDS011;58741;52.672;13.548;2023-05-21T07:41:44;2.97;;;2.42;;
71083;SDS011;58741;52.672;13.548;2023-05-21T07:44:10;3.65;;;2.65;;
71083;SDS011;58741;52.672;13.548;2023-05-21T07:46:39;5.43;;;3.00;;
71083;SDS011;58741;52.672;13.548;2023-05-21T07:49:06;3.55;;;2.45;;
71083;SDS011;58741;52.672;13.548;2023-05-21T07:51:34;2.90;;;2.30;;
71083;SDS011;58741;52.672;13.548;2023-05-21T07:54:01;4.72;;;2.70;;
71083;SDS011;58741;52.672;13.548;2023-05-21T07:56:31;3.28;;;2.58;;
71083;SDS011;58741;52.672;13.548;2023-05-21T07:58:57;3.35;;;2.45;;
71083;SDS011;58741;52.672;13.548;2023-05-21T08:01:23;6.35;;;2.97;;
71083;SDS011;58741;52.672;13.548;2023-05-21T08:03:49;5.40;;;2.67;;
71083;SDS011;58741;52.672;13.548;2023-05-21T08:06:14;3.15;;;2.85;;
71083;SDS011;58741;52.672;13.548;2023-05-21T08:08:40;3.80;;;3.10;;
71083;SDS011;58741;52.672;13.548;2023-05-21T08:11:06;3.60;;;2.53;;
71083;SDS011;58741;52.672;13.548;2023-05-21T08:14:28;2.97;;;2.40;;
71083;SDS011;58741;52.672;13.548;2023-05-21T08:16:54;5.90;;;3.42;;
71083;SDS011;58741;52.672;13.548;2023-05-21T08:19:20;3.33;;;2.60;;
71083;SDS011;58741;52.672;13.548;2023-05-21T08:21:46;4.65;;;2.42;;
71083;SDS011;58741;52.672;13.548;2023-05-21T08:24:12;3.97;;;2.67;;
71083;SDS011;58741;52.672;13.548;2023-05-21T08:26:37;4.82;;;3.20;;
71083;SDS011;58741;52.672;13.548;2023-05-21T08:29:03;4.45;;;2.65;;
71083;SDS011;58741;52.672;13.548;2023-05-21T08:31:29;4.05;;;2.67;;
71083;SDS011;58741;52.672;13.548;2023-05-21T08:33:55;4.13;;;2.78;;
71083;SDS011;58741;52.672;13.548;2023-05-21T08:36:31;3.70;;;2.63;;
71083;SDS011;58741;52.672;13.548;2023-05-21T08:39:03;3.25;;;2.30;;
71083;SDS011;58741;52.672;13.548;2023-05-21T08:41:34;3.95;;;2.53;;
71083;SDS011;58741;52.672;13.548;2023-05-21T08:44:01;2.65;;;2.28;;
71083;SDS011;58741;52.672;13.548;2023-05-21T08:46:31;4.60;;;2.75;;
71083;SDS011;58741;52.672;13.548;2023-05-21T08:49:00;4.00;;;2.50;;
71083;SDS011;58741;52.672;13.548;2023-05-21T08:51:28;8.50;;;2.63;;
71083;SDS011;58741;52.672;13.548;2023-05-21T08:53:55;4.63;;;2.78;;
71083;SDS011;58741;52.672;13.548;2023-05-21T08:56:22;2.63;;;2.42;;
71083;SDS011;58741;52.672;13.548;2023-05-21T08:58:52;3.72;;;2.67;;
71083;SDS011;58741;52.672;13.548;2023-05-21T09:01:20;7.20;;;2.45;;
71083;SDS011;58741;52.672;13.548;2023-05-21T09:03:53;6.20;;;2.92;;
71083;SDS011;58741;52.672;13.548;2023-05-21T09:06:20;3.83;;;2.03;;
71083;SDS011;58741;52.672;13.548;2023-05-21T09:08:48;3.38;;;2.60;;
71083;SDS011;58741;52.672;13.548;2023-05-21T09:11:28;4.30;;;2.38;;
71083;SDS011;58741;52.672;13.548;2023-05-21T09:13:57;4.00;;;2.42;;
71083;SDS011;58741;52.672;13.548;2023-05-21T09:18:57;3.22;;;2.28;;
71083;SDS011;58741;52.672;13.548;2023-05-21T09:21:31;2.20;;;1.92;;
71083;SDS011;58741;52.672;13.548;2023-05-21T09:24:18;3.05;;;2.58;;
71083;SDS011;58741;52.672;13.548;2023-05-21T09:26:47;3.33;;;2.33;;
71083;SDS011;58741;52.672;13.548;2023-05-21T09:29:13;3.42;;;2.42;;
71083;SDS011;58741;52.672;13.548;2023-05-21T09:31:42;4.75;;;2.55;;
71083;SDS011;58741;52.672;13.548;2023-05-21T09:34:10;3.65;;;2.30;;
71083;SDS011;58741;52.672;13.548;2023-05-21T09:36:37;4.15;;;2.40;;
71083;SDS011;58741;52.672;13.548;2023-05-21T09:39:03;2.78;;;2.10;;
71083;SDS011;58741;52.672;13.548;2023-05-21T09:41:33;3.20;;;2.15;;
71083;SDS011;58741;52.672;13.548;2023-05-21T09:44:00;3.10;;;2.20;;
71083;SDS011;58741;52.672;13.548;2023-05-21T09:46:26;3.78;;;2.78;;
71083;SDS011;58741;52.672;13.548;2023-05-21T09:49:01;4.00;;;3.13;;
71083;SDS011;58741;52.672;13.548;2023-05-21T09:51:27;3.70;;;2.88;;
71083;SDS011;58741;52.672;13.548;2023-05-21T09:53:54;2.35;;;2.15;;
71083;SDS011;58741;52.672;13.548;2023-05-21T09:56:25;2.63;;;2.25;;
71083;SDS011;58741;52.672;13.548;2023-05-21T09:58:54;2.70;;;2.25;;
71083;SDS011;58741;52.672;13.548;2023-05-21T10:01:24;2.40;;;2.20;;
71083;SDS011;58741;52.672;13.548;2023-05-21T10:03:53;2.75;;;2.20;;
71083;SDS011;58741;52.672;13.548;2023-05-21T10:06:20;5.65;;;2.58;;
71083;SDS011;58741;52.672;13.548;2023-05-21T10:08:52;2.97;;;2.45;;
71083;SDS011;58741;52.672;13.548;2023-05-21T10:11:24;3.03;;;2.47;;
71083;SDS011;58741;52.672;13.548;2023-05-21T10:13:55;5.47;;;2.45;;
71083;SDS011;58741;52.672;13.548;2023-05-21T10:16:24;2.25;;;2.05;;
71083;SDS011;58741;52.672;13.548;2023-05-21T10:18:50;2.40;;;2.20;;
71083;SDS011;58741;52.672;13.548;2023-05-21T10:21:18;2.63;;;2.08;;
71083;SDS011;58741;52.672;13.548;2023-05-21T10:30:13;2.97;;;2.05;;
71083;SDS011;58741;52.672;13.548;2023-05-21T10:32:39;2.65;;;2.38;;
71083;SDS011;58741;52.672;13.548;2023-05-21T10:35:06;3.25;;;2.03;;
71083;SDS011;58741;52.672;13.548;2023-05-21T10:37:33;3.38;;;2.42;;
71083;SDS011;58741;52.672;13.548;2023-05-21T10:39:59;2.47;;;2.28;;
71083;SDS011;58741;52.672;13.548;2023-05-21T10:53:40;2.38;;;2.17;;
71083;SDS011;58741;52.672;13.548;2023-05-21T10:56:13;2.40;;;1.98;;
71083;SDS011;58741;52.672;13.548;2023-05-21T10:59:00;2.53;;;2.03;;
71083;SDS011;58741;52.672;13.548;2023-05-21T11:01:28;3.22;;;2.80;;
71083;SDS011;58741;52.672;13.548;2023-05-21T11:03:57;4.93;;;2.35;;
71083;SDS011;58741;52.672;13.548;2023-05-21T11:06:24;4.38;;;3.10;;
71083;SDS011;58741;52.672;13.548;2023-05-21T11:08:50;2.75;;;2.10;;
71083;SDS011;58741;52.672;13.548;2023-05-21T11:17:09;2.35;;;2.00;;
71083;SDS011;58741;52.672;13.548;2023-05-21T11:20:03;2.78;;;2.47;;
71083;SDS011;58741;52.672;13.548;2023-05-21T11:22:32;2.88;;;2.08;;
71083;SDS011;58741;52.672;13.548;2023-05-21T11:25:00;2.22;;;1.95;;
71083;SDS011;58741;52.672;13.548;2023-05-21T11:27:33;3.58;;;2.42;;
71083;SDS011;58741;52.672;13.548;2023-05-21T11:30:03;2.92;;;2.42;;
71083;SDS011;58741;52.672;13.548;2023-05-21T11:32:29;2.90;;;2.28;;
71083;SDS011;58741;52.672;13.548;2023-05-21T11:34:55;1.90;;;1.80;;
71083;SDS011;58741;52.672;13.548;2023-05-21T11:37:26;2.35;;;2.00;;
71083;SDS011;58741;52.672;13.548;2023-05-21T11:39:54;5.07;;;2.47;;
71083;SDS011;58741;52.672;13.548;2023-05-21T11:42:30;2.47;;;2.08;;
71083;SDS011;58741;52.672;13.548;2023-05-21T11:44:57;2.58;;;2.10;;
71083;SDS011;58741;52.672;13.548;2023-05-21T11:47:25;2.42;;;1.58;;
71083;SDS011;58741;52.672;13.548;2023-05-21T11:49:51;2.13;;;1.85;;
71083;SDS011;58741;52.672;13.548;2023-05-21T11:52:17;1.90;;;1.80;;
71083;SDS011;58741;52.672;13.548;2023-05-21T11:57:46;1.67;;;1.58;;
71083;SDS011;58741;52.672;13.548;2023-05-21T12:00:16;2.42;;;1.50;;
71083;SDS011;58741;52.672;13.548;2023-05-21T12:02:43;1.63;;;1.52;;
71083;SDS011;58741;52.672;13.548;2023-05-21T12:05:10;3.40;;;2.15;;
71083;SDS011;58741;52.672;13.548;2023-05-21T12:07:36;1.90;;;1.75;;
71083;SDS011;58741;52.672;13.548;2023-05-21T12:10:02;2.78;;;1.63;;
71083;SDS011;58741;52.672;13.548;2023-05-21T12:12:30;2.28;;;1.77;;
71083;SDS011;58741;52.672;13.548;2023-05-21T12:14:56;2.92;;;1.70;;
71083;SDS011;58741;52.672;13.548;2023-05-21T12:17:23;2.42;;;1.80;;
71083;SDS011;58741;52.672;13.548;2023-05-21T12:19:51;1.88;;;1.70;;
71083;SDS011;58741;52.672;13.548;2023-05-21T12:22:18;2.67;;;2.10;;
71083;SDS011;58741;52.672;13.548;2023-05-21T12:24:44;3.20;;;2.03;;
71083;SDS011;58741;52.672;13.548;2023-05-21T12:27:10;1.73;;;1.63;;
71083;SDS011;58741;52.672;13.548;2023-05-21T12:29:40;4.47;;;2.08;;
71083;SDS011;58741;52.672;13.548;2023-05-21T12:32:11;1.90;;;1.70;;
71083;SDS011;58741;52.672;13.548;2023-05-21T12:37:09;3.55;;;1.92;;
71083;SDS011;58741;52.672;13.548;2023-05-21T12:39:45;3.33;;;1.60;;
71083;SDS011;58741;52.672;13.548;2023-05-21T12:42:12;3.45;;;2.03;;
71083;SDS011;58741;52.672;13.548;2023-05-21T12:44:38;2.22;;;1.73;;
71083;SDS011;58741;52.672;13.548;2023-05-21T12:47:08;1.45;;;1.35;;
71083;SDS011;58741;52.672;13.548;2023-05-21T12:49:37;2.50;;;1.90;;
71083;SDS011;58741;52.672;13.548;2023-05-21T12:52:08;1.85;;;1.55;;
71083;SDS011;58741;52.672;13.548;2023-05-21T12:54:36;2.03;;;1.80;;
71083;SDS011;58741;52.672;13.548;2023-05-21T12:59:42;2.83;;;2.03;;
71083;SDS011;58741;52.672;13.548;2023-05-21T13:02:12;2.63;;;2.15;;
71083;SDS011;58741;52.672;13.548;2023-05-21T13:04:38;3.22;;;1.77;;
71083;SDS011;58741;52.672;13.548;2023-05-21T13:07:04;1.67;;;1.58;;
71083;SDS011;58741;52.672;13.548;2023-05-21T13:09:30;1.92;;;1.60;;
71083;SDS011;58741;52.672;13.548;2023-05-21T13:11:55;1.63;;;1.50;;
71083;SDS011;58741;52.672;13.548;2023-05-21T13:14:21;1.20;;;1.10;;
71083;SDS011;58741;52.672;13.548;2023-05-21T13:16:46;1.63;;;1.50;;
71083;SDS011;58741;52.672;13.548;2023-05-21T13:19:12;2.55;;;1.70;;
71083;SDS011;58741;52.672;13.548;2023-05-21T13:21:39;2.90;;;1.77;;
71083;SDS011;58741;52.672;13.548;2023-05-21T13:24:04;1.95;;;1.55;;
71083;SDS011;58741;52.672;13.548;2023-05-21T13:26:31;2.28;;;1.83;;
71083;SDS011;58741;52.672;13.548;2023-05-21T13:28:57;2.47;;;1.33;;
71083;SDS011;58741;52.672;13.548;2023-05-21T13:31:22;2.45;;;1.58;;
71083;SDS011;58741;52.672;13.548;2023-05-21T13:33:48;1.58;;;1.48;;
71083;SDS011;58741;52.672;13.548;2023-05-21T13:36:13;4.60;;;1.83;;
71083;SDS011;58741;52.672;13.548;2023-05-21T13:38:39;2.25;;;1.92;;
71083;SDS011;58741;52.672;13.548;2023-05-21T13:41:05;2.05;;;1.45;;
71083;SDS011;58741;52.672;13.548;2023-05-21T13:44:14;2.95;;;1.48;;
71083;SDS011;58741;52.672;13.548;2023-05-21T13:46:40;1.75;;;1.65;;
71083;SDS011;58741;52.672;13.548;2023-05-21T13:49:05;1.92;;;1.60;;
71083;SDS011;58741;52.672;13.548;2023-05-21T13:51:31;1.70;;;1.60;;
71083;SDS011;58741;52.672;13.548;2023-05-21T13:53:57;2.28;;;1.63;;
71083;SDS011;58741;52.672;13.548;2023-05-21T13:56:22;2.85;;;1.92;;
71083;SDS011;58741;52.672;13.548;2023-05-21T13:58:48;1.55;;;1.45;;
71083;SDS011;58741;52.672;13.548;2023-05-21T14:01:13;2.30;;;1.52;;
71083;SDS011;58741;52.672;13.548;2023-05-21T14:03:39;3.33;;;1.88;;
71083;SDS011;58741;52.672;13.548;2023-05-21T14:06:04;1.90;;;1.70;;
71083;SDS011;58741;52.672;13.548;2023-05-21T14:08:31;2.08;;;1.88;;
71083;SDS011;58741;52.672;13.548;2023-05-21T14:10:57;1.63;;;1.45;;
71083;SDS011;58741;52.672;13.548;2023-05-21T14:13:23;1.45;;;1.33;;
71083;SDS011;58741;52.672;13.548;2023-05-21T14:15:49;2.08;;;1.20;;
71083;SDS011;58741;52.672;13.548;2023-05-21T14:18:15;1.60;;;1.40;;
71083;SDS011;58741;52.672;13.548;2023-05-21T14:20:41;1.33;;;1.15;;
71083;SDS011;58741;52.672;13.548;2023-05-21T14:23:06;1.48;;;1.38;;
71083;SDS011;58741;52.672;13.548;2023-05-21T14:25:33;2.40;;;1.70;;
71083;SDS011;58741;52.672;13.548;2023-05-21T14:27:58;1.60;;;1.33;;
71083;SDS011;58741;52.672;13.548;2023-05-21T14:30:24;3.67;;;1.52;;
71083;SDS011;58741;52.672;13.548;2023-05-21T14:32:49;3.30;;;1.90;;
71083;SDS011;58741;52.672;13.548;2023-05-21T14:35:15;2.70;;;1.77;;
71083;SDS011;58741;52.672;13.548;2023-05-21T14:37:41;1.52;;;1.42;;
71083;SDS011;58741;52.672;13.548;2023-05-21T14:40:06;1.40;;;1.30;;
71083;SDS011;58741;52.672;13.548;2023-05-21T14:42:33;1.05;;;0.98;;
71083;SDS011;58741;52.672;13.548;2023-05-21T14:44:59;2.05;;;1.30;;
71083;SDS011;58741;52.672;13.548;2023-05-21T14:47:25;1.70;;;1.60;;
71083;SDS011;58741;52.672;13.548;2023-05-21T14:49:50;1.40;;;1.30;;
71083;SDS011;58741;52.672;13.548;2023-05-21T14:52:16;1.30;;;1.20;;
71083;SDS011;58741;52.672;13.548;2023-05-21T14:54:41;1.30;;;1.20;;
71083;SDS011;58741;52.672;13.548;2023-05-21T14:57:07;1.67;;;1.52;;
71083;SDS011;58741;52.672;13.548;2023-05-21T14:59:33;1.45;;;1.35;;
71083;SDS011;58741;52.672;13.548;2023-05-21T15:01:58;2.55;;;1.80;;
71083;SDS011;58741;52.672;13.548;2023-05-21T15:04:24;1.75;;;1.35;;
71083;SDS011;58741;52.672;13.548;2023-05-21T15:06:50;3.92;;;1.60;;
71083;SDS011;58741;52.672;13.548;2023-05-21T15:09:15;1.50;;;1.23;;
71083;SDS011;58741;52.672;13.548;2023-05-21T15:11:41;3.20;;;1.80;;
71083;SDS011;58741;52.672;13.548;2023-05-21T15:14:08;1.60;;;1.35;;
71083;SDS011;58741;52.672;13.548;2023-05-21T15:16:34;1.77;;;1.50;;
71083;SDS011;58741;52.672;13.548;2023-05-21T15:18:59;1.95;;;1.55;;